createdAt,value
2024-01-30T00:00:22.082Z,1014.33
2024-01-30T00:01:22.185Z,1014.33
2024-01-30T00:02:22.097Z,1014.32
2024-01-30T00:03:22.065Z,1014.34
2024-01-30T00:04:22.086Z,1014.32
2024-01-30T00:05:22.096Z,1014.31
2024-01-30T00:06:22.041Z,1014.31
2024-01-30T00:07:22.151Z,1014.32
2024-01-30T00:08:22.048Z,1014.32
2024-01-30T00:09:21.985Z,1014.30
2024-01-30T00:10:22.077Z,1014.30
2024-01-30T00:11:22.016Z,1014.30
2024-01-30T00:12:21.961Z,1014.31
2024-01-30T00:13:22.027Z,1014.30
2024-01-30T00:14:21.982Z,1014.30
2024-01-30T00:15:21.942Z,1014.30
2024-01-30T00:16:21.994Z,1014.29
2024-01-30T00:17:21.886Z,1014.29
2024-01-30T00:18:21.887Z,1014.32
2024-01-30T00:19:22.005Z,1014.32
2024-01-30T00:20:22.185Z,1014.33
2024-01-30T00:21:21.907Z,1014.34
2024-01-30T00:22:21.942Z,1014.35
2024-01-30T00:23:21.842Z,1014.33
2024-01-30T00:24:21.860Z,1014.33
2024-01-30T00:25:21.846Z,1014.32
2024-01-30T00:26:21.831Z,1014.33
2024-01-30T00:27:21.828Z,1014.33
2024-01-30T00:28:21.821Z,1014.32
2024-01-30T00:29:21.765Z,1014.31
2024-01-30T00:30:21.796Z,1014.31
2024-01-30T00:31:21.822Z,1014.32
2024-01-30T00:32:21.797Z,1014.31
2024-01-30T00:33:21.795Z,1014.29
2024-01-30T00:34:21.790Z,1014.27
2024-01-30T00:35:21.719Z,1014.28
2024-01-30T00:36:21.700Z,1014.28
2024-01-30T00:37:21.841Z,1014.27
2024-01-30T00:38:21.732Z,1014.26
2024-01-30T00:39:21.711Z,1014.24
2024-01-30T00:40:21.771Z,1014.24
2024-01-30T00:41:21.687Z,1014.25
2024-01-30T00:42:21.632Z,1014.25
2024-01-30T00:43:21.667Z,1014.26
2024-01-30T00:44:21.657Z,1014.26
2024-01-30T00:45:21.642Z,1014.25
2024-01-30T00:46:21.712Z,1014.26
2024-01-30T00:47:21.632Z,1014.25
2024-01-30T00:48:21.583Z,1014.26
2024-01-30T00:49:21.689Z,1014.27
2024-01-30T00:50:21.631Z,1014.27
2024-01-30T00:51:21.586Z,1014.26
2024-01-30T00:52:21.675Z,1014.26
2024-01-30T00:53:21.507Z,1014.26
2024-01-30T00:54:21.525Z,1014.26
2024-01-30T00:55:21.654Z,1014.27
2024-01-30T00:56:21.554Z,1014.27
2024-01-30T00:57:21.550Z,1014.29
2024-01-30T00:58:21.550Z,1014.29
2024-01-30T00:59:21.516Z,1014.28
2024-01-30T01:00:21.457Z,1014.28
2024-01-30T01:01:21.502Z,1014.30
2024-01-30T01:02:21.453Z,1014.33
2024-01-30T01:03:21.477Z,1014.33
2024-01-30T01:04:21.540Z,1014.32
2024-01-30T01:05:21.408Z,1014.33
2024-01-30T01:06:21.430Z,1014.33
2024-01-30T01:07:21.411Z,1014.33
2024-01-30T01:08:21.401Z,1014.36
2024-01-30T01:09:21.352Z,1014.36
2024-01-30T01:10:21.473Z,1014.37
2024-01-30T01:11:21.345Z,1014.38
2024-01-30T01:12:21.333Z,1014.39
2024-01-30T01:13:21.471Z,1014.39
2024-01-30T01:14:21.337Z,1014.38
2024-01-30T01:15:21.370Z,1014.38
2024-01-30T01:16:21.460Z,1014.37
2024-01-30T01:17:21.276Z,1014.37
2024-01-30T01:18:21.292Z,1014.38
2024-01-30T01:19:21.356Z,1014.38
2024-01-30T01:20:21.261Z,1014.39
2024-01-30T01:21:21.259Z,1014.38
2024-01-30T01:22:21.320Z,1014.39
2024-01-30T01:23:21.218Z,1014.37
2024-01-30T01:24:21.247Z,1014.36
2024-01-30T01:25:21.294Z,1014.37
2024-01-30T01:26:21.220Z,1014.37
2024-01-30T01:27:21.212Z,1014.37
2024-01-30T01:28:21.295Z,1014.38
2024-01-30T01:29:21.183Z,1014.36
2024-01-30T01:30:21.142Z,1014.36
2024-01-30T01:31:21.258Z,1014.35
2024-01-30T01:32:21.145Z,1014.35
2024-01-30T01:33:21.198Z,1014.33
2024-01-30T01:34:21.199Z,1014.33
2024-01-30T01:35:21.083Z,1014.34
2024-01-30T01:36:21.086Z,1014.34
2024-01-30T01:37:21.091Z,1014.32
2024-01-30T01:38:21.075Z,1014.31
2024-01-30T01:39:21.093Z,1014.29
2024-01-30T01:40:21.111Z,1014.27
2024-01-30T01:41:21.023Z,1014.27
2024-01-30T01:42:20.998Z,1014.26
2024-01-30T01:43:21.108Z,1014.26
2024-01-30T01:44:21.027Z,1014.26
2024-01-30T01:45:20.995Z,1014.24
2024-01-30T01:46:21.003Z,1014.23
2024-01-30T01:47:20.970Z,1014.23
2024-01-30T01:48:21.007Z,1014.23
2024-01-30T01:49:20.971Z,1014.24
2024-01-30T01:50:21.221Z,1014.24
2024-01-30T01:51:21.003Z,1014.24
2024-01-30T01:52:20.937Z,1014.24
2024-01-30T01:53:20.872Z,1014.22
2024-01-30T01:54:20.868Z,1014.22
2024-01-30T01:55:20.893Z,1014.20
2024-01-30T01:56:20.853Z,1014.19
2024-01-30T01:57:20.854Z,1014.17
2024-01-30T01:58:20.865Z,1014.16
2024-01-30T01:59:20.808Z,1014.13
2024-01-30T02:00:20.797Z,1014.12
2024-01-30T02:01:20.905Z,1014.13
2024-01-30T02:02:20.819Z,1014.12
2024-01-30T02:03:20.818Z,1014.11
2024-01-30T02:04:20.781Z,1014.10
2024-01-30T02:05:20.750Z,1014.09
2024-01-30T02:06:20.732Z,1014.08
2024-01-30T02:07:20.828Z,1014.08
2024-01-30T02:08:20.773Z,1014.08
2024-01-30T02:09:20.739Z,1014.08
2024-01-30T02:10:20.875Z,1014.09
2024-01-30T02:11:20.745Z,1014.08
2024-01-30T02:12:20.688Z,1014.07
2024-01-30T02:13:20.724Z,1014.08
2024-01-30T02:14:20.685Z,1014.08
2024-01-30T02:15:20.646Z,1014.08
2024-01-30T02:16:20.656Z,1014.08
2024-01-30T02:17:20.617Z,1014.08
2024-01-30T02:18:20.622Z,1014.08
2024-01-30T02:19:20.678Z,1014.08
2024-01-30T02:20:20.705Z,1014.08
2024-01-30T02:21:20.612Z,1014.09
2024-01-30T02:22:20.589Z,1014.08
2024-01-30T02:23:20.543Z,1014.09
2024-01-30T02:24:20.582Z,1014.07
2024-01-30T02:25:20.670Z,1014.07
2024-01-30T02:26:20.536Z,1014.06
2024-01-30T02:27:20.561Z,1014.06
2024-01-30T02:28:20.596Z,1014.06
2024-01-30T02:29:20.486Z,1014.06
2024-01-30T02:30:20.479Z,1014.05
2024-01-30T02:31:20.607Z,1014.05
2024-01-30T02:32:20.488Z,1014.05
2024-01-30T02:33:20.474Z,1014.06
2024-01-30T02:34:20.571Z,1014.06
2024-01-30T02:35:20.507Z,1014.07
2024-01-30T02:36:20.448Z,1014.06
2024-01-30T02:37:20.454Z,1014.06
2024-01-30T02:38:20.425Z,1014.06
2024-01-30T02:39:20.398Z,1014.03
2024-01-30T02:40:20.493Z,1014.02
2024-01-30T02:41:20.363Z,1014.02
2024-01-30T02:42:20.378Z,1014.03
2024-01-30T02:43:20.493Z,1014.04
2024-01-30T02:44:20.353Z,1014.05
2024-01-30T02:45:20.312Z,1014.06
2024-01-30T02:46:20.335Z,1014.05
2024-01-30T02:47:20.289Z,1014.06
2024-01-30T02:48:20.308Z,1014.07
2024-01-30T02:49:20.354Z,1014.06
2024-01-30T02:50:20.381Z,1014.06
2024-01-30T02:51:20.245Z,1014.07
2024-01-30T02:52:20.305Z,1014.07
2024-01-30T02:53:20.224Z,1014.08
2024-01-30T02:54:20.228Z,1014.08
2024-01-30T02:55:20.307Z,1014.07
2024-01-30T02:56:20.193Z,1014.08
2024-01-30T02:57:20.173Z,1014.08
2024-01-30T02:58:20.224Z,1014.07
2024-01-30T02:59:20.190Z,1014.06
2024-01-30T03:00:20.154Z,1014.05
2024-01-30T03:01:20.225Z,1014.05
2024-01-30T03:02:20.225Z,1014.06
2024-01-30T03:03:20.174Z,1014.05
2024-01-30T03:04:20.251Z,1014.06
2024-01-30T03:05:20.099Z,1014.04
2024-01-30T03:06:20.157Z,1014.04
2024-01-30T03:07:20.148Z,1014.03
2024-01-30T03:08:20.134Z,1014.02
2024-01-30T03:09:20.113Z,1014.01
2024-01-30T03:10:20.093Z,1014.02
2024-01-30T03:11:20.123Z,1014.01
2024-01-30T03:12:20.029Z,1014.02
2024-01-30T03:13:20.057Z,1014.02
2024-01-30T03:14:20.005Z,1014.03
2024-01-30T03:15:19.983Z,1014.01
2024-01-30T03:16:19.988Z,1014.03
2024-01-30T03:17:19.952Z,1014.02
2024-01-30T03:18:19.975Z,1014.02
2024-01-30T03:19:20.052Z,1014.02
2024-01-30T03:20:19.928Z,1014.02
2024-01-30T03:21:19.936Z,1014.03
2024-01-30T03:22:19.952Z,1014.04
2024-01-30T03:23:19.902Z,1014.04
2024-01-30T03:24:19.877Z,1014.04
2024-01-30T03:25:19.967Z,1014.04
2024-01-30T03:26:19.879Z,1014.05
2024-01-30T03:27:19.843Z,1014.04
2024-01-30T03:28:19.975Z,1014.03
2024-01-30T03:29:19.833Z,1014.03
2024-01-30T03:30:19.821Z,1014.03
2024-01-30T03:31:19.978Z,1014.03
2024-01-30T03:32:19.815Z,1014.02
2024-01-30T03:33:19.881Z,1014.01
2024-01-30T03:34:19.821Z,1014.02
2024-01-30T03:35:19.792Z,1014.02
2024-01-30T03:36:19.778Z,1014.02
2024-01-30T03:37:19.804Z,1014.03
2024-01-30T03:38:19.746Z,1014.04
2024-01-30T03:39:19.754Z,1014.05
2024-01-30T03:40:19.735Z,1014.07
2024-01-30T03:41:19.732Z,1014.07
2024-01-30T03:42:19.679Z,1014.08
2024-01-30T03:43:19.827Z,1014.08
2024-01-30T03:44:19.665Z,1014.09
2024-01-30T03:45:19.659Z,1014.09
2024-01-30T03:46:19.739Z,1014.09
2024-01-30T03:47:19.657Z,1014.08
2024-01-30T03:48:19.632Z,1014.08
2024-01-30T03:49:19.791Z,1014.08
2024-01-30T03:50:19.671Z,1014.09
2024-01-30T03:51:19.587Z,1014.09
2024-01-30T03:52:19.601Z,1014.09
2024-01-30T03:53:19.580Z,1014.09
2024-01-30T03:54:19.549Z,1014.09
2024-01-30T03:55:19.648Z,1014.08
2024-01-30T03:56:19.532Z,1014.10
2024-01-30T03:57:19.567Z,1014.09
2024-01-30T03:58:19.617Z,1014.09
2024-01-30T03:59:19.527Z,1014.09
2024-01-30T04:00:19.485Z,1014.07
2024-01-30T04:01:19.532Z,1014.07
2024-01-30T04:02:19.667Z,1014.06
2024-01-30T04:03:19.452Z,1014.06
2024-01-30T04:04:19.521Z,1014.05
2024-01-30T04:05:19.462Z,1014.03
2024-01-30T04:06:19.430Z,1014.02
2024-01-30T04:07:22.309Z,1014.02
2024-01-30T04:08:19.422Z,1014.03
2024-01-30T04:09:19.408Z,1014.02
2024-01-30T04:10:19.433Z,1014.02
2024-01-30T04:11:19.384Z,1014.00
2024-01-30T04:12:19.347Z,1013.99
2024-01-30T04:13:19.426Z,1013.99
2024-01-30T04:14:19.323Z,1013.97
2024-01-30T04:15:19.350Z,1013.97
2024-01-30T04:16:19.421Z,1013.97
2024-01-30T04:17:19.325Z,1013.97
2024-01-30T04:18:19.330Z,1013.95
2024-01-30T04:19:19.439Z,1013.95
2024-01-30T04:20:19.421Z,1013.92
2024-01-30T04:21:19.265Z,1013.91
2024-01-30T04:22:19.303Z,1013.90
2024-01-30T04:23:19.247Z,1013.90
2024-01-30T04:24:19.223Z,1013.89
2024-01-30T04:25:19.303Z,1013.89
2024-01-30T04:26:19.195Z,1013.90
2024-01-30T04:27:19.183Z,1013.91
2024-01-30T04:28:19.311Z,1013.90
2024-01-30T04:29:19.208Z,1013.90
2024-01-30T04:30:19.160Z,1013.90
2024-01-30T04:31:19.213Z,1013.90
2024-01-30T04:32:19.133Z,1013.90
2024-01-30T04:33:19.143Z,1013.90
2024-01-30T04:34:19.238Z,1013.90
2024-01-30T04:35:19.231Z,1013.90
2024-01-30T04:36:19.124Z,1013.89
2024-01-30T04:37:19.149Z,1013.89
2024-01-30T04:38:19.128Z,1013.89
2024-01-30T04:39:19.074Z,1013.90
2024-01-30T04:40:19.102Z,1013.90
2024-01-30T04:41:19.031Z,1013.91
2024-01-30T04:42:19.048Z,1013.91
2024-01-30T04:43:19.098Z,1013.92
2024-01-30T04:44:18.999Z,1013.92
2024-01-30T04:45:19.007Z,1013.94
2024-01-30T04:46:19.049Z,1013.94
2024-01-30T04:47:18.964Z,1013.94
2024-01-30T04:48:19.064Z,1013.94
2024-01-30T04:49:19.026Z,1013.94
2024-01-30T04:50:18.940Z,1013.95
2024-01-30T04:51:19.046Z,1013.95
2024-01-30T04:52:18.992Z,1013.95
2024-01-30T04:53:18.964Z,1013.97
2024-01-30T04:54:18.891Z,1013.97
2024-01-30T04:55:21.292Z,1013.99
2024-01-30T04:56:18.882Z,1014.00
2024-01-30T04:57:18.865Z,1014.01
2024-01-30T04:58:18.974Z,1014.02
2024-01-30T04:59:18.857Z,1014.02
2024-01-30T05:00:18.832Z,1014.03
2024-01-30T05:01:18.975Z,1014.03
2024-01-30T05:02:18.872Z,1014.03
2024-01-30T05:03:18.871Z,1014.04
2024-01-30T05:04:18.900Z,1014.07
2024-01-30T05:05:18.801Z,1014.07
2024-01-30T05:06:18.788Z,1014.07
2024-01-30T05:07:18.831Z,1014.07
2024-01-30T05:08:18.735Z,1014.07
2024-01-30T05:09:18.735Z,1014.09
2024-01-30T05:10:18.783Z,1014.10
2024-01-30T05:11:18.705Z,1014.11
2024-01-30T05:12:18.740Z,1014.13
2024-01-30T05:13:18.748Z,1014.11
2024-01-30T05:14:18.678Z,1014.13
2024-01-30T05:15:18.685Z,1014.13
2024-01-30T05:16:18.765Z,1014.14
2024-01-30T05:17:18.666Z,1014.14
2024-01-30T05:18:18.735Z,1014.15
2024-01-30T05:19:19.007Z,1014.15
2024-01-30T05:20:18.649Z,1014.15
2024-01-30T05:21:18.624Z,1014.14
2024-01-30T05:22:18.746Z,1014.12
2024-01-30T05:23:18.603Z,1014.12
2024-01-30T05:24:21.076Z,1014.11
2024-01-30T05:25:18.660Z,1014.12
2024-01-30T05:26:18.551Z,1014.12
2024-01-30T05:27:18.542Z,1014.11
2024-01-30T05:28:18.567Z,1014.11
2024-01-30T05:29:18.517Z,1014.12
2024-01-30T05:30:18.542Z,1014.12
2024-01-30T05:31:18.542Z,1014.14
2024-01-30T05:32:18.517Z,1014.12
2024-01-30T05:33:18.567Z,1014.14
2024-01-30T05:34:18.474Z,1014.16
2024-01-30T05:35:18.515Z,1014.15
2024-01-30T05:36:18.472Z,1014.16
2024-01-30T05:37:18.671Z,1014.17
2024-01-30T05:38:18.416Z,1014.18
2024-01-30T05:39:18.434Z,1014.20
2024-01-30T05:40:18.529Z,1014.19
2024-01-30T05:41:18.420Z,1014.20
2024-01-30T05:42:18.365Z,1014.20
2024-01-30T05:43:18.499Z,1014.20
2024-01-30T05:44:18.349Z,1014.21
2024-01-30T05:45:18.423Z,1014.22
2024-01-30T05:46:19.352Z,1014.24
2024-01-30T05:47:18.351Z,1014.25
2024-01-30T05:48:18.289Z,1014.26
2024-01-30T05:49:18.318Z,1014.25
2024-01-30T05:50:18.349Z,1014.25
2024-01-30T05:51:18.320Z,1014.24
2024-01-30T05:52:18.324Z,1014.26
2024-01-30T05:53:18.291Z,1014.26
2024-01-30T05:54:18.394Z,1014.30
2024-01-30T05:55:18.266Z,1014.28
2024-01-30T05:56:18.229Z,1014.30
2024-01-30T05:57:18.227Z,1014.28
2024-01-30T05:58:18.365Z,1014.29
2024-01-30T05:59:18.202Z,1014.30
2024-01-30T06:00:18.240Z,1014.30
2024-01-30T06:01:18.314Z,1014.29
2024-01-30T06:02:18.226Z,1014.28
2024-01-30T06:03:18.168Z,1014.28
2024-01-30T06:04:18.272Z,1014.28
2024-01-30T06:05:18.159Z,1014.28
2024-01-30T06:06:18.153Z,1014.27
2024-01-30T06:07:18.152Z,1014.27
2024-01-30T06:08:18.144Z,1014.28
2024-01-30T06:09:18.081Z,1014.28
2024-01-30T06:10:18.152Z,1014.28
2024-01-30T06:11:18.072Z,1014.28
2024-01-30T06:12:18.046Z,1014.29
2024-01-30T06:13:18.089Z,1014.29
2024-01-30T06:14:18.051Z,1014.29
2024-01-30T06:15:18.020Z,1014.30
2024-01-30T06:16:18.039Z,1014.29
2024-01-30T06:17:17.945Z,1014.29
2024-01-30T06:18:17.977Z,1014.27
2024-01-30T06:19:18.024Z,1014.26
2024-01-30T06:20:17.957Z,1014.26
2024-01-30T06:21:17.884Z,1014.25
2024-01-30T06:22:18.084Z,1014.25
2024-01-30T06:23:17.925Z,1014.25
2024-01-30T06:24:17.908Z,1014.25
2024-01-30T06:25:17.992Z,1014.26
2024-01-30T06:26:17.836Z,1014.26
2024-01-30T06:27:17.810Z,1014.27
2024-01-30T06:28:17.865Z,1014.27
2024-01-30T06:29:20.234Z,1014.27
2024-01-30T06:30:17.940Z,1014.27
2024-01-30T06:31:17.927Z,1014.28
2024-01-30T06:32:17.797Z,1014.29
2024-01-30T06:33:17.857Z,1014.29
2024-01-30T06:34:17.879Z,1014.28
2024-01-30T06:35:17.760Z,1014.28
2024-01-30T06:36:17.734Z,1014.28
2024-01-30T06:37:17.833Z,1014.27
2024-01-30T06:38:17.729Z,1014.26
2024-01-30T06:39:17.709Z,1014.26
2024-01-30T06:40:17.713Z,1014.25
2024-01-30T06:41:17.693Z,1014.25
2024-01-30T06:42:17.739Z,1014.23
2024-01-30T06:43:17.768Z,1014.22
2024-01-30T06:44:17.650Z,1014.21
2024-01-30T06:45:17.663Z,1014.20
2024-01-30T06:46:17.664Z,1014.20
2024-01-30T06:47:17.623Z,1014.21
2024-01-30T06:48:17.652Z,1014.21
2024-01-30T06:49:17.604Z,1014.23
2024-01-30T06:50:17.619Z,1014.25
2024-01-30T06:51:18.398Z,1014.25
2024-01-30T06:52:17.620Z,1014.27
2024-01-30T06:53:17.582Z,1014.28
2024-01-30T06:54:17.580Z,1014.29
2024-01-30T06:55:17.586Z,1014.29
2024-01-30T06:56:17.544Z,1014.28
2024-01-30T06:57:17.489Z,1014.27
2024-01-30T06:58:17.567Z,1014.27
2024-01-30T06:59:17.536Z,1014.28
2024-01-30T07:00:17.583Z,1014.29
2024-01-30T07:01:17.592Z,1014.30
2024-01-30T07:02:17.510Z,1014.31
2024-01-30T07:03:17.430Z,1014.32
2024-01-30T07:04:17.541Z,1014.31
2024-01-30T07:05:17.422Z,1014.30
2024-01-30T07:06:17.451Z,1014.29
2024-01-30T07:07:17.522Z,1014.28
2024-01-30T07:08:17.364Z,1014.29
2024-01-30T07:09:17.367Z,1014.29
2024-01-30T07:10:17.388Z,1014.29
2024-01-30T07:11:17.352Z,1014.30
2024-01-30T07:12:17.462Z,1014.30
2024-01-30T07:13:17.403Z,1014.29
2024-01-30T07:14:17.297Z,1014.28
2024-01-30T07:15:17.308Z,1014.29
2024-01-30T07:16:17.300Z,1014.31
2024-01-30T07:17:17.289Z,1014.32
2024-01-30T07:18:17.285Z,1014.32
2024-01-30T07:19:17.330Z,1014.32
2024-01-30T07:20:18.446Z,1014.33
2024-01-30T07:21:17.254Z,1014.32
2024-01-30T07:22:17.292Z,1014.31
2024-01-30T07:23:17.231Z,1014.31
2024-01-30T07:24:17.215Z,1014.31
2024-01-30T07:25:17.201Z,1014.29
2024-01-30T07:26:17.172Z,1014.29
2024-01-30T07:27:17.168Z,1014.28
2024-01-30T07:28:17.260Z,1014.27
2024-01-30T07:29:17.172Z,1014.26
2024-01-30T07:30:17.149Z,1014.27
2024-01-30T07:31:17.181Z,1014.25
2024-01-30T07:32:17.138Z,1014.24
2024-01-30T07:33:17.198Z,1014.25
2024-01-30T07:34:17.249Z,1014.24
2024-01-30T07:35:17.209Z,1014.26
2024-01-30T07:36:17.084Z,1014.26
2024-01-30T07:37:17.108Z,1014.28
2024-01-30T07:38:17.049Z,1014.30
2024-01-30T07:39:17.052Z,1014.31
2024-01-30T07:40:17.065Z,1014.32
2024-01-30T07:41:17.011Z,1014.34
2024-01-30T07:42:17.001Z,1014.34
2024-01-30T07:43:17.014Z,1014.34
2024-01-30T07:44:16.986Z,1014.33
2024-01-30T07:45:16.984Z,1014.33
2024-01-30T07:46:17.074Z,1014.33
2024-01-30T07:47:16.954Z,1014.32
2024-01-30T07:48:16.999Z,1014.32
2024-01-30T07:49:17.010Z,1014.32
2024-01-30T07:50:16.953Z,1014.32
2024-01-30T07:51:16.925Z,1014.31
2024-01-30T07:52:16.916Z,1014.31
2024-01-30T07:53:17.037Z,1014.30
2024-01-30T07:54:16.896Z,1014.31
2024-01-30T07:55:16.856Z,1014.32
2024-01-30T07:56:16.865Z,1014.32
2024-01-30T07:57:16.860Z,1014.32
2024-01-30T07:58:16.875Z,1014.31
2024-01-30T07:59:16.828Z,1014.31
2024-01-30T08:00:16.828Z,1014.29
2024-01-30T08:01:17.001Z,1014.28
2024-01-30T08:02:16.785Z,1014.30
2024-01-30T08:03:16.803Z,1014.31
2024-01-30T08:04:16.947Z,1014.32
2024-01-30T08:05:16.782Z,1014.32
2024-01-30T08:06:16.796Z,1014.33
2024-01-30T08:07:16.817Z,1014.33
2024-01-30T08:08:16.719Z,1014.35
2024-01-30T08:09:16.744Z,1014.36
2024-01-30T08:10:16.834Z,1014.38
2024-01-30T08:11:16.690Z,1014.39
2024-01-30T08:12:16.680Z,1014.41
2024-01-30T08:13:16.762Z,1014.43
2024-01-30T08:14:16.693Z,1014.45
2024-01-30T08:15:16.692Z,1014.47
2024-01-30T08:16:16.704Z,1014.48
2024-01-30T08:17:16.632Z,1014.50
2024-01-30T08:18:16.714Z,1014.50
2024-01-30T08:19:16.748Z,1014.51
2024-01-30T08:20:16.639Z,1014.52
2024-01-30T08:21:16.627Z,1014.51
2024-01-30T08:22:16.702Z,1014.53
2024-01-30T08:23:16.647Z,1014.53
2024-01-30T08:24:16.605Z,1014.55
2024-01-30T08:25:16.730Z,1014.53
2024-01-30T08:26:16.802Z,1014.52
2024-01-30T08:27:16.683Z,1014.51
2024-01-30T08:28:18.877Z,1014.50
2024-01-30T08:29:16.704Z,1014.49
2024-01-30T08:30:16.531Z,1014.48
2024-01-30T08:31:16.695Z,1014.47
2024-01-30T08:32:16.500Z,1014.49
2024-01-30T08:33:16.604Z,1014.50
2024-01-30T08:34:16.531Z,1014.50
2024-01-30T08:35:16.597Z,1014.50
2024-01-30T08:36:16.424Z,1014.48
2024-01-30T08:37:16.468Z,1014.48
2024-01-30T08:38:16.624Z,1014.48
2024-01-30T08:39:16.411Z,1014.46
2024-01-30T08:40:16.476Z,1014.45
2024-01-30T08:41:16.460Z,1014.44
2024-01-30T08:42:16.448Z,1014.44
2024-01-30T08:43:16.450Z,1014.42
2024-01-30T08:44:16.461Z,1014.42
2024-01-30T08:45:16.456Z,1014.43
2024-01-30T08:46:16.437Z,1014.41
2024-01-30T08:47:16.352Z,1014.40
2024-01-30T08:48:16.409Z,1014.41
2024-01-30T08:49:16.380Z,1014.44
2024-01-30T08:50:16.297Z,1014.42
2024-01-30T08:51:16.304Z,1014.44
2024-01-30T08:52:16.458Z,1014.45
2024-01-30T08:53:16.283Z,1014.46
2024-01-30T08:54:16.272Z,1014.44
2024-01-30T08:55:16.474Z,1014.46
2024-01-30T08:56:16.315Z,1014.45
2024-01-30T08:57:16.248Z,1014.47
2024-01-30T08:58:16.286Z,1014.49
2024-01-30T08:59:16.209Z,1014.51
2024-01-30T09:00:16.178Z,1014.53
2024-01-30T09:01:16.242Z,1014.54
2024-01-30T09:02:16.454Z,1014.55
2024-01-30T09:03:16.255Z,1014.56
2024-01-30T09:04:16.209Z,1014.57
2024-01-30T09:05:16.182Z,1014.59
2024-01-30T09:06:16.157Z,1014.61
2024-01-30T09:07:16.202Z,1014.59
2024-01-30T09:08:16.223Z,1014.57
2024-01-30T09:09:16.091Z,1014.56
2024-01-30T09:10:18.395Z,1014.57
2024-01-30T09:11:16.044Z,1014.57
2024-01-30T09:12:16.041Z,1014.58
2024-01-30T09:13:16.563Z,1014.57
2024-01-30T09:14:16.033Z,1014.55
2024-01-30T09:15:16.005Z,1014.55
2024-01-30T09:16:16.074Z,1014.55
2024-01-30T09:17:15.972Z,1014.55
2024-01-30T09:18:15.997Z,1014.53
2024-01-30T09:19:16.077Z,1014.53
2024-01-30T09:20:16.021Z,1014.54
2024-01-30T09:21:15.954Z,1014.55
2024-01-30T09:22:15.967Z,1014.57
2024-01-30T09:23:15.939Z,1014.60
2024-01-30T09:24:15.918Z,1014.59
2024-01-30T09:25:15.919Z,1014.60
2024-01-30T09:26:15.902Z,1014.60
2024-01-30T09:27:15.888Z,1014.65
2024-01-30T09:28:15.928Z,1014.66
2024-01-30T09:29:15.835Z,1014.72
2024-01-30T09:30:15.853Z,1014.72
2024-01-30T09:31:15.906Z,1014.70
2024-01-30T09:32:15.836Z,1014.69
2024-01-30T09:33:15.856Z,1014.73
2024-01-30T09:34:15.888Z,1014.72
2024-01-30T09:35:16.063Z,1014.71
2024-01-30T09:36:15.783Z,1014.69
2024-01-30T09:37:15.770Z,1014.71
2024-01-30T09:38:15.770Z,1014.70
2024-01-30T09:39:15.802Z,1014.71
2024-01-30T09:40:15.841Z,1014.72
2024-01-30T09:41:15.710Z,1014.71
2024-01-30T09:42:15.710Z,1014.71
2024-01-30T09:43:15.725Z,1014.71
2024-01-30T09:44:15.691Z,1014.73
2024-01-30T09:45:15.682Z,1014.70
2024-01-30T09:46:15.712Z,1014.72
2024-01-30T09:47:15.668Z,1014.71
2024-01-30T09:48:15.699Z,1014.73
2024-01-30T09:49:17.696Z,1014.69
2024-01-30T09:50:15.709Z,1014.68
2024-01-30T09:51:15.678Z,1014.70
2024-01-30T09:52:15.676Z,1014.69
2024-01-30T09:53:15.690Z,1014.68
2024-01-30T09:54:15.683Z,1014.70
2024-01-30T09:55:15.670Z,1014.66
2024-01-30T09:56:15.568Z,1014.68
2024-01-30T09:57:15.554Z,1014.67
2024-01-30T09:58:15.640Z,1014.67
2024-01-30T09:59:15.588Z,1014.68
2024-01-30T10:00:15.560Z,1014.64
2024-01-30T10:01:15.607Z,1014.63
2024-01-30T10:02:15.596Z,1014.63
2024-01-30T10:03:15.588Z,1014.66
2024-01-30T10:04:15.609Z,1014.66
2024-01-30T10:05:15.463Z,1014.71
2024-01-30T10:06:15.444Z,1014.72
2024-01-30T10:07:15.538Z,1014.71
2024-01-30T10:08:15.759Z,1014.70
2024-01-30T10:09:15.425Z,1014.68
2024-01-30T10:10:15.484Z,1014.68
2024-01-30T10:11:15.410Z,1014.66
2024-01-30T10:12:15.390Z,1014.67
2024-01-30T10:13:15.424Z,1014.70
2024-01-30T10:14:15.386Z,1014.71
2024-01-30T10:15:15.390Z,1014.71
2024-01-30T10:16:15.377Z,1014.70
2024-01-30T10:17:21.832Z,1014.66
2024-01-30T10:18:15.377Z,1014.64
2024-01-30T10:19:15.370Z,1014.65
2024-01-30T10:20:15.455Z,1014.59
2024-01-30T10:21:15.294Z,1014.59
2024-01-30T10:22:15.289Z,1014.61
2024-01-30T10:23:15.252Z,1014.62
2024-01-30T10:24:15.322Z,1014.58
2024-01-30T10:25:15.273Z,1014.56
2024-01-30T10:26:15.256Z,1014.51
2024-01-30T10:27:15.234Z,1014.48
2024-01-30T10:28:15.255Z,1014.49
2024-01-30T10:29:15.191Z,1014.46
2024-01-30T10:30:15.358Z,1014.45
2024-01-30T10:31:15.240Z,1014.49
2024-01-30T10:32:15.188Z,1014.52
2024-01-30T10:33:15.279Z,1014.54
2024-01-30T10:34:20.106Z,1014.51
2024-01-30T10:35:15.252Z,1014.47
2024-01-30T10:36:17.642Z,1014.48
2024-01-30T10:37:15.148Z,1014.49
2024-01-30T10:38:15.114Z,1014.47
2024-01-30T10:39:15.098Z,1014.46
2024-01-30T10:40:15.141Z,1014.43
2024-01-30T10:41:15.070Z,1014.42
2024-01-30T10:42:15.043Z,1014.41
2024-01-30T10:43:15.124Z,1014.43
2024-01-30T10:44:15.186Z,1014.47
2024-01-30T10:45:15.150Z,1014.45
2024-01-30T10:46:15.022Z,1014.45
2024-01-30T10:47:15.023Z,1014.45
2024-01-30T10:48:15.056Z,1014.47
2024-01-30T10:49:15.077Z,1014.46
2024-01-30T10:50:15.134Z,1014.43
2024-01-30T10:51:14.942Z,1014.42
2024-01-30T10:52:14.951Z,1014.42
2024-01-30T10:53:14.927Z,1014.45
2024-01-30T10:54:14.913Z,1014.47
2024-01-30T10:55:15.038Z,1014.45
2024-01-30T10:56:14.891Z,1014.41
2024-01-30T10:57:14.886Z,1014.42
2024-01-30T10:58:14.896Z,1014.44
2024-01-30T10:59:14.856Z,1014.47
2024-01-30T11:00:14.862Z,1014.47
2024-01-30T11:01:14.922Z,1014.48
2024-01-30T11:02:14.877Z,1014.42
2024-01-30T11:03:14.804Z,1014.40
2024-01-30T11:04:14.916Z,1014.41
2024-01-30T11:05:14.873Z,1014.40
2024-01-30T11:06:14.797Z,1014.40
2024-01-30T11:07:14.785Z,1014.42
2024-01-30T11:08:14.796Z,1014.46
2024-01-30T11:09:14.753Z,1014.45
2024-01-30T11:10:14.799Z,1014.44
2024-01-30T11:11:17.301Z,1014.45
2024-01-30T11:12:14.752Z,1014.46
2024-01-30T11:13:14.756Z,1014.48
2024-01-30T11:14:14.703Z,1014.55
2024-01-30T11:15:14.719Z,1014.49
2024-01-30T11:16:14.713Z,1014.47
2024-01-30T11:17:14.682Z,1014.43
2024-01-30T11:18:14.720Z,1014.41
2024-01-30T11:19:14.760Z,1014.40
2024-01-30T11:20:14.654Z,1014.42
2024-01-30T11:21:14.618Z,1014.44
2024-01-30T11:22:14.634Z,1014.42
2024-01-30T11:23:14.587Z,1014.40
2024-01-30T11:24:14.596Z,1014.45
2024-01-30T11:25:14.614Z,1014.37
2024-01-30T11:26:14.565Z,1014.38
2024-01-30T11:27:14.552Z,1014.33
2024-01-30T11:28:14.697Z,1014.32
2024-01-30T11:29:14.554Z,1014.33
2024-01-30T11:30:14.531Z,1014.36
2024-01-30T11:31:14.578Z,1014.37
2024-01-30T11:32:14.523Z,1014.31
2024-01-30T11:33:14.642Z,1014.36
2024-01-30T11:34:14.503Z,1014.32
2024-01-30T11:35:14.567Z,1014.30
2024-01-30T11:36:14.477Z,1014.27
2024-01-30T11:37:14.505Z,1014.24
2024-01-30T11:38:14.453Z,1014.22
2024-01-30T11:39:14.433Z,1014.21
2024-01-30T11:40:14.486Z,1014.24
2024-01-30T11:41:14.411Z,1014.18
2024-01-30T11:42:14.411Z,1014.16
2024-01-30T11:43:14.508Z,1014.12
2024-01-30T11:44:14.376Z,1014.15
2024-01-30T11:45:14.361Z,1014.12
2024-01-30T11:46:14.386Z,1014.10
2024-01-30T11:47:14.346Z,1014.05
2024-01-30T11:48:14.479Z,1013.99
2024-01-30T11:49:14.374Z,1013.97
2024-01-30T11:50:14.417Z,1013.97
2024-01-30T11:51:14.284Z,1013.92
2024-01-30T11:52:14.328Z,1013.89
2024-01-30T11:53:14.294Z,1013.89
2024-01-30T11:54:14.285Z,1013.82
2024-01-30T11:55:14.307Z,1013.82
2024-01-30T11:56:14.240Z,1013.84
2024-01-30T11:57:14.214Z,1013.83
2024-01-30T11:58:14.250Z,1013.80
2024-01-30T11:59:14.248Z,1013.77
2024-01-30T12:00:14.215Z,1013.79
2024-01-30T12:01:14.278Z,1013.80
2024-01-30T12:02:14.203Z,1013.84
2024-01-30T12:03:14.163Z,1013.84
2024-01-30T12:04:14.203Z,1013.88
2024-01-30T12:05:14.145Z,1013.97